createdAt,value
2022-11-02T00:03:54.508Z,7.17
2022-11-02T00:07:56.075Z,16.97
2022-11-02T00:11:57.642Z,8.23
2022-11-02T00:16:02.711Z,8.63
2022-11-02T00:20:06.819Z,9.50
2022-11-02T00:24:10.079Z,8.53
2022-11-02T00:28:12.459Z,11.30
2022-11-02T00:32:14.059Z,10.53
2022-11-02T00:36:16.813Z,9.17
2022-11-02T00:40:18.388Z,8.77
2022-11-02T00:44:19.927Z,9.27
2022-11-02T00:48:21.321Z,10.43
2022-11-02T00:52:24.055Z,8.73
2022-11-02T00:56:25.467Z,9.87
2022-11-02T01:00:26.883Z,16.27
2022-11-02T01:04:28.500Z,8.80
2022-11-02T01:08:32.771Z,13.97
2022-11-02T01:16:55.646Z,9.47
2022-11-02T01:20:57.060Z,9.80
2022-11-02T01:24:59.813Z,10.43
2022-11-02T01:29:01.389Z,10.37
2022-11-02T01:33:05.109Z,8.70
2022-11-02T01:37:06.778Z,7.53
2022-11-02T01:41:11.226Z,8.83
2022-11-02T01:45:13.573Z,6.20
2022-11-02T01:49:19.633Z,9.83
2022-11-02T01:53:21.217Z,9.13
2022-11-02T01:57:27.365Z,8.40
2022-11-02T02:01:29.436Z,6.97
2022-11-02T02:05:33.593Z,11.10
2022-11-02T02:09:35.317Z,8.70
2022-11-02T02:13:38.246Z,8.30
2022-11-02T02:17:46.624Z,10.13
2022-11-02T02:21:59.727Z,8.43
2022-11-02T02:26:23.294Z,11.63
2022-11-02T02:30:27.809Z,6.50
2022-11-02T02:34:35.343Z,11.33
2022-11-02T02:38:44.622Z,8.77
2022-11-02T02:42:51.615Z,8.17
2022-11-02T02:46:58.881Z,10.37
2022-11-02T02:51:04.619Z,8.80
2022-11-02T02:55:08.327Z,10.83
2022-11-02T02:59:18.547Z,12.27
2022-11-02T03:03:25.152Z,8.67
2022-11-02T03:07:32.956Z,8.10
2022-11-02T03:11:43.900Z,8.60
2022-11-02T03:15:51.921Z,9.30
2022-11-02T03:20:01.123Z,10.60
2022-11-02T03:24:09.328Z,7.00
2022-11-02T03:28:15.915Z,11.67
2022-11-02T03:32:23.591Z,13.07
2022-11-02T03:36:33.320Z,9.60
2022-11-02T03:40:40.476Z,8.17
2022-11-02T03:44:42.879Z,11.17
2022-11-02T03:48:47.872Z,6.00
2022-11-02T03:53:00.941Z,6.57
2022-11-02T03:57:07.298Z,6.13
2022-11-02T04:01:09.829Z,6.53
2022-11-02T04:05:11.893Z,7.03
2022-11-02T04:09:15.268Z,8.03
2022-11-02T04:13:19.345Z,4.10
2022-11-02T04:17:20.954Z,11.10
2022-11-02T04:21:22.723Z,7.23
2022-11-02T04:25:25.495Z,11.07
2022-11-02T04:29:27.047Z,9.13
2022-11-02T04:33:28.468Z,8.63
2022-11-02T04:41:33.892Z,8.03
2022-11-02T04:45:35.692Z,8.17
2022-11-02T04:49:38.108Z,6.47
2022-11-02T04:53:39.527Z,8.87
2022-11-02T04:57:45.553Z,5.53
2022-11-02T05:01:47.141Z,6.13
2022-11-02T05:05:53.512Z,8.87
2022-11-02T05:09:54.916Z,9.30
2022-11-02T05:13:57.691Z,6.97
2022-11-02T05:17:59.097Z,8.57
2022-11-02T05:22:00.699Z,9.20
2022-11-02T05:26:04.684Z,7.00
2022-11-02T05:30:08.938Z,7.60
2022-11-02T05:38:34.271Z,8.20
2022-11-02T05:42:36.292Z,10.40
2022-11-02T05:46:39.242Z,8.27
2022-11-02T05:50:40.652Z,9.33
2022-11-02T05:54:42.089Z,6.90
2022-11-02T05:58:43.661Z,7.77
2022-11-02T06:02:46.623Z,7.83
2022-11-02T06:06:48.248Z,10.20
2022-11-02T06:10:49.858Z,9.83
2022-11-02T06:14:51.407Z,10.50
2022-11-02T06:18:54.316Z,11.47
2022-11-02T06:22:55.852Z,9.30
2022-11-02T06:26:57.360Z,10.50
2022-11-02T06:30:58.940Z,11.10
2022-11-02T06:35:01.812Z,10.03
2022-11-02T06:39:03.423Z,8.70
2022-11-02T06:43:16.207Z,9.37
2022-11-02T06:47:18.739Z,7.03
2022-11-02T06:51:21.604Z,9.33
2022-11-02T06:55:23.132Z,10.77
2022-11-02T06:59:24.564Z,11.13
2022-11-02T07:03:26.988Z,11.70
2022-11-02T07:07:29.928Z,13.13
2022-11-02T07:11:31.331Z,13.30
2022-11-02T07:15:32.859Z,8.23
2022-11-02T07:19:34.426Z,8.80
2022-11-02T07:23:37.461Z,9.87
2022-11-02T07:27:39.781Z,10.77
2022-11-02T07:31:41.266Z,9.70
2022-11-02T07:35:42.775Z,8.13
2022-11-02T07:39:45.703Z,8.23
2022-11-02T07:43:47.430Z,8.70
2022-11-02T07:47:49.607Z,11.23
2022-11-02T07:51:51.217Z,6.73
2022-11-02T07:55:54.181Z,10.90
2022-11-02T07:59:55.716Z,9.40
2022-11-02T08:03:58.025Z,10.43
2022-11-02T08:08:00.444Z,10.33
2022-11-02T08:12:03.608Z,9.73
2022-11-02T08:16:06.162Z,10.47
2022-11-02T08:20:08.850Z,10.40
2022-11-02T08:24:10.368Z,16.37
2022-11-02T08:28:15.327Z,9.50
2022-11-02T08:32:16.729Z,17.93
2022-11-02T08:36:18.163Z,11.33
2022-11-02T08:40:19.560Z,10.37
2022-11-02T08:44:22.557Z,16.53
2022-11-02T08:48:24.069Z,10.13
2022-11-02T08:52:25.610Z,13.43
2022-11-02T08:56:27.150Z,10.57
2022-11-02T09:00:31.875Z,8.70
2022-11-02T09:04:33.272Z,10.50
2022-11-02T09:08:34.795Z,14.70
2022-11-02T09:12:36.201Z,11.93
2022-11-02T09:16:41.612Z,10.30
2022-11-02T09:20:43.590Z,7.63
2022-11-02T09:24:45.258Z,10.63
2022-11-02T09:28:46.814Z,9.23
2022-11-02T09:32:55.260Z,10.30
2022-11-02T09:36:56.650Z,10.53
2022-11-02T09:41:12.673Z,9.87
2022-11-02T09:45:17.508Z,9.07
2022-11-02T09:49:23.174Z,10.53
2022-11-02T09:53:30.606Z,11.50
2022-11-02T09:57:33.440Z,14.57
2022-11-02T10:01:43.787Z,12.37
2022-11-02T10:05:56.549Z,11.80
2022-11-02T10:10:02.632Z,12.03
2022-11-02T10:14:12.913Z,7.63
2022-11-02T10:18:19.378Z,8.77
2022-11-02T10:22:27.568Z,8.03
2022-11-02T10:26:33.167Z,10.70
2022-11-02T10:30:35.657Z,7.00
2022-11-02T10:34:37.824Z,8.70
2022-11-02T10:38:50.651Z,8.43
2022-11-02T10:43:05.481Z,5.93
2022-11-02T10:47:15.134Z,5.03
2022-11-02T10:51:16.957Z,7.07
2022-11-02T10:55:25.529Z,5.60
2022-11-02T10:59:26.943Z,6.07
2022-11-02T11:03:28.473Z,6.83
2022-11-02T11:07:29.991Z,7.03
2022-11-02T11:11:35.269Z,5.20
2022-11-02T11:15:52.191Z,5.60
2022-11-02T11:19:55.804Z,6.17
2022-11-02T11:24:18.889Z,4.47
2022-11-02T11:28:27.687Z,7.23
2022-11-02T11:32:30.966Z,7.00
2022-11-02T11:36:35.496Z,6.57
2022-11-02T11:40:38.967Z,7.70
2022-11-02T11:44:46.846Z,7.83
2022-11-02T11:48:51.788Z,4.83
2022-11-02T11:53:09.761Z,7.60
2022-11-02T11:57:24.377Z,7.10
2022-11-02T12:01:27.446Z,4.87
2022-11-02T12:05:29.553Z,9.80
2022-11-02T12:09:37.459Z,3.60
2022-11-02T12:14:10.518Z,6.90
2022-11-02T12:18:33.703Z,7.27
2022-11-02T12:22:42.986Z,8.40
2022-11-02T12:26:54.634Z,4.27
2022-11-02T12:31:06.608Z,6.57
2022-11-02T12:35:34.919Z,8.37
2022-11-02T12:39:50.833Z,4.63
2022-11-02T12:44:04.231Z,7.57
2022-11-02T12:48:06.993Z,7.23
2022-11-02T12:52:26.399Z,9.70
2022-11-02T12:56:34.464Z,7.70
2022-11-02T13:00:40.386Z,6.23
2022-11-02T13:04:50.086Z,7.60
2022-11-02T13:08:57.619Z,7.50
2022-11-02T13:13:02.920Z,6.30
2022-11-02T13:17:09.976Z,7.50
2022-11-02T13:21:16.034Z,5.47
2022-11-02T13:25:23.095Z,7.93
2022-11-02T13:29:32.538Z,4.07
2022-11-02T13:33:42.450Z,8.83
2022-11-02T13:37:47.401Z,10.73
2022-11-02T13:42:17.202Z,7.10
2022-11-02T13:46:37.285Z,8.67
2022-11-02T13:50:42.847Z,7.50
2022-11-02T13:54:48.614Z,5.00
2022-11-02T13:58:57.825Z,10.00
2022-11-02T14:03:05.079Z,5.27
2022-11-02T14:07:20.622Z,9.33
2022-11-02T14:11:35.122Z,8.13
2022-11-02T14:15:42.687Z,6.40
2022-11-02T14:19:55.402Z,6.67
2022-11-02T14:23:56.989Z,10.03
2022-11-02T14:28:36.017Z,9.87
2022-11-02T14:32:52.502Z,9.77
2022-11-02T14:37:06.547Z,12.17
2022-11-02T14:41:25.989Z,8.07
2022-11-02T14:45:52.717Z,8.33
2022-11-02T14:49:57.767Z,10.27
2022-11-02T14:54:03.293Z,9.13
2022-11-02T14:58:14.984Z,5.50
2022-11-02T15:02:22.710Z,16.47
2022-11-02T15:06:28.026Z,11.90
2022-11-02T15:10:50.539Z,10.20
2022-11-02T15:14:56.125Z,7.43
2022-11-02T15:19:38.151Z,10.83
2022-11-02T15:27:55.432Z,7.97
2022-11-02T15:31:58.875Z,9.50
2022-11-02T15:36:01.259Z,6.50
2022-11-02T15:40:17.520Z,8.13
2022-11-02T15:44:26.726Z,6.53
2022-11-02T15:48:42.923Z,7.87
2022-11-02T15:53:23.451Z,6.57
2022-11-02T15:57:39.294Z,9.57
2022-11-02T16:01:41.879Z,7.43
2022-11-02T16:05:45.338Z,9.20
2022-11-02T16:09:47.119Z,6.97
2022-11-02T16:14:08.963Z,8.13
2022-11-02T16:18:26.898Z,5.07
2022-11-02T16:22:28.362Z,8.20
2022-11-02T16:26:29.967Z,8.30
2022-11-02T16:30:34.850Z,8.90
2022-11-02T16:34:38.331Z,11.13
2022-11-02T16:38:47.767Z,8.23
2022-11-02T16:42:52.943Z,7.43
2022-11-02T16:46:59.520Z,8.07
2022-11-02T16:51:16.475Z,8.07
2022-11-02T16:55:35.444Z,8.43
2022-11-02T16:59:44.968Z,7.60
2022-11-02T17:03:48.219Z,6.40
2022-11-02T17:07:58.280Z,9.53
2022-11-02T17:12:06.009Z,5.43
2022-11-02T17:16:11.533Z,6.60
2022-11-02T17:20:20.819Z,10.47
2022-11-02T17:24:30.823Z,6.27
2022-11-02T17:28:43.212Z,11.47
2022-11-02T17:32:44.655Z,8.03
2022-11-02T17:36:49.109Z,6.50
2022-11-02T17:40:51.078Z,6.53
2022-11-02T17:44:52.462Z,9.83
2022-11-02T17:48:53.855Z,10.87
2022-11-02T17:52:57.763Z,10.67
2022-11-02T17:57:00.939Z,7.43
2022-11-02T18:01:04.357Z,10.37
2022-11-02T18:05:19.756Z,9.80
2022-11-02T18:09:22.732Z,7.63
2022-11-02T18:13:24.183Z,13.97
2022-11-02T18:17:25.636Z,7.13
2022-11-02T18:21:27.051Z,9.60
2022-11-02T18:25:31.077Z,7.27
2022-11-02T18:29:32.755Z,7.00
2022-11-02T18:33:34.523Z,8.07
2022-11-02T18:37:37.077Z,8.77
2022-11-02T18:41:40.050Z,13.63
2022-11-02T18:45:41.497Z,10.70
2022-11-02T18:49:42.913Z,10.43
2022-11-02T18:53:44.443Z,8.43
2022-11-02T18:57:47.253Z,10.00
2022-11-02T19:01:48.831Z,11.00
2022-11-02T19:10:04.162Z,9.00
2022-11-02T19:14:07.179Z,9.00
2022-11-02T19:18:08.618Z,8.00
2022-11-02T19:22:11.806Z,5.10
2022-11-02T19:26:13.333Z,5.87
2022-11-02T19:30:16.338Z,7.27
2022-11-02T19:34:17.850Z,9.67
2022-11-02T19:38:19.261Z,7.23
2022-11-02T19:42:20.725Z,7.23
2022-11-02T19:46:24.402Z,9.27
2022-11-02T19:50:25.884Z,9.00
2022-11-02T19:54:27.316Z,13.97
2022-11-02T19:58:28.809Z,8.83
2022-11-02T20:02:31.805Z,11.37
2022-11-02T20:06:35.027Z,9.47
2022-11-02T20:10:36.570Z,18.07
2022-11-02T20:14:38.144Z,29.83
2022-11-02T20:18:42.740Z,52.10
2022-11-02T20:22:44.153Z,40.20
2022-11-02T20:26:45.774Z,48.87
2022-11-02T20:30:47.224Z,44.33
2022-11-02T20:34:50.027Z,41.97
2022-11-02T20:38:51.702Z,41.20
2022-11-02T20:42:53.190Z,43.63
2022-11-02T20:46:54.924Z,37.33
2022-11-02T20:50:57.788Z,38.97
2022-11-02T20:54:59.221Z,26.17
2022-11-02T20:59:00.817Z,41.50
2022-11-02T21:03:02.810Z,23.80
2022-11-02T21:07:05.923Z,34.37
2022-11-02T21:11:07.425Z,37.73
2022-11-02T21:15:09.217Z,48.27
2022-11-02T21:19:10.667Z,37.57
2022-11-02T21:23:13.511Z,44.77
2022-11-02T21:27:20.426Z,44.00
2022-11-02T21:31:23.052Z,28.73
2022-11-02T21:35:24.692Z,12.17
2022-11-02T21:39:27.459Z,20.77
2022-11-02T21:43:29.819Z,25.87
2022-11-02T21:47:31.341Z,20.83
2022-11-02T21:51:32.988Z,29.27
2022-11-02T21:55:35.766Z,16.33
2022-11-02T21:59:37.358Z,19.63
2022-11-02T22:03:38.930Z,21.80
2022-11-02T22:07:41.343Z,20.53
2022-11-02T22:11:44.506Z,15.63
2022-11-02T22:15:45.940Z,14.33
2022-11-02T22:19:47.404Z,9.00
2022-11-02T22:23:50.074Z,13.80
2022-11-02T22:27:53.071Z,9.03
2022-11-02T22:31:54.490Z,10.23
2022-11-02T22:35:55.886Z,8.73
2022-11-02T22:39:57.327Z,12.87
2022-11-02T22:44:02.110Z,10.87
2022-11-02T22:48:03.807Z,8.93
2022-11-02T22:52:05.372Z,9.93
2022-11-02T22:56:09.177Z,10.47
2022-11-02T23:00:13.555Z,12.00
2022-11-02T23:04:14.978Z,9.13
2022-11-02T23:08:16.596Z,6.07
2022-11-02T23:12:18.054Z,14.63
2022-11-02T23:16:22.637Z,12.97
2022-11-02T23:20:24.197Z,18.50
2022-11-02T23:24:25.807Z,15.30
2022-11-02T23:28:27.214Z,18.77
2022-11-02T23:32:30.012Z,10.13
2022-11-02T23:36:31.514Z,12.33
2022-11-02T23:40:32.964Z,24.77
2022-11-02T23:44:34.562Z,40.87
2022-11-02T23:48:37.526Z,44.00
2022-11-02T23:52:38.993Z,44.93
2022-11-02T23:56:40.598Z,48.37
